Northfield, MN

5:50 AM CST on February 11, 2016 (GMT -0600)
APRSWXNET | | Change Station
CLOSE
Current Station
Personal Weather Station
Location: Northfield, MN
Elevation: 981 ft
Nearby Weather Stations

Elev 981 ft 44.47 °N, 93.21 °W | Updated 27 minutes ago

Mostly Cloudy
Mostly Cloudy
-2 °F
Feels Like -2 °F
N
0
Wind Variable Wind from SE
Gusts 0.0 mph

Today
High -- | Low -- °F
--% Chance of Precip.
Yesterday
High -- | Low -- °F
Precip. -- in
Pressure 30.30 in
Visibility 10.0 miles
Clouds Clear
Windchill -2 °F
Dew Point -6 °F
Humidity 83%
Rainfall in
Snow Depth Not available.
7:19 AM 5:35 PM
Waxing Crescent, 11% visible
METAR KSYN 111135Z AUTO 00000KT 10SM CLR M21/M24 A3030 RMK AO2 T12131239
Pressure 30.30 in
Visibility 10.0 miles
Clouds Clear
Windchill -2 °F
Dew Point -6 °F
Humidity 83%
Rainfall in
Snow Depth Not available.
7:19 AM 5:35 PM
Waxing Crescent, 11% visible
METAR KSYN 111135Z AUTO 00000KT 10SM CLR M21/M24 A3030 RMK AO2 T12131239

10-Day Weather Forecast

Almanac

Astronomy

Feb. 11, 2016 Rise Set
Actual Time
Civil Twilight
Nautical Twilight
Astronomical Twilight
Moon
Length of Visible Light
Length of Day
Tomorrow will be .
, % of the Moon is Illuminated

Today's Extremes

State Highs State Lows

Community

WunderPhotos

Upload Photos

1,892,030 photos uploaded!

WunderBlog® & News

Nearby

Air Quality

  Air Quality AQ Index Pollutant
Not available.

Snow Depth

Station Depth Elevation

Earthquake Activity

City Distance Mag. Time & Date
Minimum magnitude displayed is 2.5.

Coastal Water Temperatures

Place Temperature

Stations

Nearby Weather Stations

Station Location Temp. Windchill Dew Point Humidity Wind Precip. Elev Updated Type
                   

Watches & Warnings

There are currently no watches in effect.